sensor_id;sensor_type;location;lat;lon;timestamp;P1;durP1;ratioP1;P2;durP2;ratioP2
47021;SDS011;32779;52.264;6.154;2023-11-21T00:00:48;47.08;;;22.10;;
47021;SDS011;32779;52.264;6.154;2023-11-21T00:03:14;51.60;;;22.65;;
47021;SDS011;32779;52.264;6.154;2023-11-21T00:05:40;46.80;;;23.73;;
47021;SDS011;32779;52.264;6.154;2023-11-21T00:10:32;44.90;;;22.48;;
47021;SDS011;32779;52.264;6.154;2023-11-21T00:12:58;53.83;;;25.05;;
47021;SDS011;32779;52.264;6.154;2023-11-21T00:15:23;47.20;;;23.20;;
47021;SDS011;32779;52.264;6.154;2023-11-21T00:17:49;43.03;;;22.77;;
47021;SDS011;32779;52.264;6.154;2023-11-21T00:20:15;50.95;;;23.00;;
47021;SDS011;32779;52.264;6.154;2023-11-21T00:22:40;47.05;;;23.77;;
47021;SDS011;32779;52.264;6.154;2023-11-21T00:25:07;40.30;;;21.65;;
47021;SDS011;32779;52.264;6.154;2023-11-21T00:27:34;39.92;;;21.88;;
47021;SDS011;32779;52.264;6.154;2023-11-21T00:30:00;50.78;;;23.38;;
47021;SDS011;32779;52.264;6.154;2023-11-21T00:32:26;42.35;;;22.20;;
47021;SDS011;32779;52.264;6.154;2023-11-21T00:34:52;40.92;;;20.90;;
47021;SDS011;32779;52.264;6.154;2023-11-21T00:37:19;43.00;;;20.25;;
47021;SDS011;32779;52.264;6.154;2023-11-21T00:39:45;43.80;;;21.85;;
47021;SDS011;32779;52.264;6.154;2023-11-21T00:42:10;45.92;;;22.58;;
47021;SDS011;32779;52.264;6.154;2023-11-21T00:44:37;44.45;;;20.38;;
47021;SDS011;32779;52.264;6.154;2023-11-21T00:47:04;46.03;;;22.45;;
47021;SDS011;32779;52.264;6.154;2023-11-21T00:49:30;38.28;;;20.48;;
47021;SDS011;32779;52.264;6.154;2023-11-21T00:51:55;43.00;;;20.85;;
47021;SDS011;32779;52.264;6.154;2023-11-21T00:54:23;42.10;;;20.10;;
47021;SDS011;32779;52.264;6.154;2023-11-21T00:56:49;37.88;;;19.48;;
47021;SDS011;32779;52.264;6.154;2023-11-21T00:59:14;43.75;;;21.35;;
47021;SDS011;32779;52.264;6.154;2023-11-21T01:01:40;43.55;;;21.58;;
47021;SDS011;32779;52.264;6.154;2023-11-21T01:04:05;45.92;;;22.75;;
47021;SDS011;32779;52.264;6.154;2023-11-21T01:06:34;50.03;;;21.65;;
47021;SDS011;32779;52.264;6.154;2023-11-21T01:08:59;42.90;;;21.92;;
47021;SDS011;32779;52.264;6.154;2023-11-21T01:11:26;47.17;;;21.65;;
47021;SDS011;32779;52.264;6.154;2023-11-21T01:13:51;48.53;;;22.48;;
47021;SDS011;32779;52.264;6.154;2023-11-21T01:16:18;50.85;;;24.15;;
47021;SDS011;32779;52.264;6.154;2023-11-21T01:21:34;52.22;;;22.05;;
47021;SDS011;32779;52.264;6.154;2023-11-21T01:24:00;63.00;;;25.38;;
47021;SDS011;32779;52.264;6.154;2023-11-21T01:26:25;61.83;;;25.75;;
47021;SDS011;32779;52.264;6.154;2023-11-21T01:28:51;49.63;;;23.42;;
47021;SDS011;32779;52.264;6.154;2023-11-21T01:31:16;61.55;;;26.92;;
47021;SDS011;32779;52.264;6.154;2023-11-21T01:33:42;51.53;;;25.08;;
47021;SDS011;32779;52.264;6.154;2023-11-21T01:36:09;59.97;;;26.45;;
47021;SDS011;32779;52.264;6.154;2023-11-21T01:38:34;54.55;;;25.00;;
47021;SDS011;32779;52.264;6.154;2023-11-21T01:41:01;57.00;;;25.95;;
47021;SDS011;32779;52.264;6.154;2023-11-21T01:43:27;57.75;;;26.75;;
47021;SDS011;32779;52.264;6.154;2023-11-21T01:45:54;67.85;;;27.65;;
47021;SDS011;32779;52.264;6.154;2023-11-21T01:48:22;63.95;;;26.88;;
47021;SDS011;32779;52.264;6.154;2023-11-21T01:50:48;68.15;;;27.25;;
47021;SDS011;32779;52.264;6.154;2023-11-21T01:53:14;62.15;;;26.35;;
47021;SDS011;32779;52.264;6.154;2023-11-21T01:55:40;65.72;;;26.63;;
47021;SDS011;32779;52.264;6.154;2023-11-21T01:58:07;66.13;;;26.02;;
47021;SDS011;32779;52.264;6.154;2023-11-21T02:00:35;55.80;;;24.83;;
47021;SDS011;32779;52.264;6.154;2023-11-21T02:03:03;62.25;;;25.42;;
47021;SDS011;32779;52.264;6.154;2023-11-21T02:05:29;56.92;;;25.73;;
47021;SDS011;32779;52.264;6.154;2023-11-21T02:07:54;53.30;;;24.23;;
47021;SDS011;32779;52.264;6.154;2023-11-21T02:10:21;67.05;;;26.52;;
47021;SDS011;32779;52.264;6.154;2023-11-21T02:12:51;63.00;;;26.30;;
47021;SDS011;32779;52.264;6.154;2023-11-21T02:15:17;62.70;;;25.63;;
47021;SDS011;32779;52.264;6.154;2023-11-21T02:17:45;61.22;;;24.45;;
47021;SDS011;32779;52.264;6.154;2023-11-21T02:20:12;59.55;;;24.00;;
47021;SDS011;32779;52.264;6.154;2023-11-21T02:22:42;58.67;;;25.55;;
47021;SDS011;32779;52.264;6.154;2023-11-21T02:25:10;61.58;;;25.50;;
47021;SDS011;32779;52.264;6.154;2023-11-21T02:27:36;65.93;;;25.80;;
47021;SDS011;32779;52.264;6.154;2023-11-21T02:32:29;67.97;;;25.20;;
47021;SDS011;32779;52.264;6.154;2023-11-21T02:34:56;61.90;;;25.35;;
47021;SDS011;32779;52.264;6.154;2023-11-21T02:37:25;63.55;;;25.27;;
47021;SDS011;32779;52.264;6.154;2023-11-21T02:39:51;61.60;;;25.08;;
47021;SDS011;32779;52.264;6.154;2023-11-21T02:42:17;62.28;;;25.13;;
47021;SDS011;32779;52.264;6.154;2023-11-21T02:44:43;77.43;;;26.95;;
47021;SDS011;32779;52.264;6.154;2023-11-21T02:47:09;62.08;;;25.55;;
47021;SDS011;32779;52.264;6.154;2023-11-21T02:49:35;61.80;;;25.67;;
47021;SDS011;32779;52.264;6.154;2023-11-21T02:52:01;71.78;;;26.20;;
47021;SDS011;32779;52.264;6.154;2023-11-21T02:54:26;64.78;;;25.15;;
47021;SDS011;32779;52.264;6.154;2023-11-21T02:56:52;63.38;;;25.08;;
47021;SDS011;32779;52.264;6.154;2023-11-21T02:59:18;62.15;;;24.38;;
47021;SDS011;32779;52.264;6.154;2023-11-21T03:01:44;52.40;;;23.38;;
47021;SDS011;32779;52.264;6.154;2023-11-21T03:04:10;62.63;;;26.35;;
47021;SDS011;32779;52.264;6.154;2023-11-21T03:06:36;63.75;;;25.88;;
47021;SDS011;32779;52.264;6.154;2023-11-21T03:09:01;65.97;;;24.90;;
47021;SDS011;32779;52.264;6.154;2023-11-21T03:11:27;65.72;;;24.35;;
47021;SDS011;32779;52.264;6.154;2023-11-21T03:13:53;62.90;;;24.85;;
47021;SDS011;32779;52.264;6.154;2023-11-21T03:16:18;56.55;;;24.85;;
47021;SDS011;32779;52.264;6.154;2023-11-21T03:18:44;61.28;;;25.80;;
47021;SDS011;32779;52.264;6.154;2023-11-21T03:21:09;61.65;;;25.48;;
47021;SDS011;32779;52.264;6.154;2023-11-21T03:23:35;54.28;;;23.45;;
47021;SDS011;32779;52.264;6.154;2023-11-21T03:26:02;57.50;;;22.92;;
47021;SDS011;32779;52.264;6.154;2023-11-21T03:30:54;52.97;;;21.90;;
47021;SDS011;32779;52.264;6.154;2023-11-21T03:33:21;63.25;;;24.27;;
47021;SDS011;32779;52.264;6.154;2023-11-21T03:35:47;55.47;;;22.98;;
47021;SDS011;32779;52.264;6.154;2023-11-21T03:38:14;49.42;;;20.80;;
47021;SDS011;32779;52.264;6.154;2023-11-21T03:40:40;55.63;;;23.25;;
47021;SDS011;32779;52.264;6.154;2023-11-21T03:43:06;56.10;;;24.17;;
47021;SDS011;32779;52.264;6.154;2023-11-21T03:45:32;58.47;;;21.98;;
47021;SDS011;32779;52.264;6.154;2023-11-21T03:47:58;52.78;;;23.17;;
47021;SDS011;32779;52.264;6.154;2023-11-21T03:50:26;47.95;;;21.80;;
47021;SDS011;32779;52.264;6.154;2023-11-21T03:52:55;49.10;;;21.80;;
47021;SDS011;32779;52.264;6.154;2023-11-21T03:55:21;53.00;;;23.10;;
47021;SDS011;32779;52.264;6.154;2023-11-21T03:57:48;51.45;;;21.10;;
47021;SDS011;32779;52.264;6.154;2023-11-21T04:00:14;48.88;;;21.80;;
47021;SDS011;32779;52.264;6.154;2023-11-21T04:02:41;49.20;;;21.42;;
47021;SDS011;32779;52.264;6.154;2023-11-21T04:05:06;58.78;;;22.23;;
47021;SDS011;32779;52.264;6.154;2023-11-21T04:07:32;53.35;;;22.13;;
47021;SDS011;32779;52.264;6.154;2023-11-21T04:09:59;50.80;;;21.33;;
47021;SDS011;32779;52.264;6.154;2023-11-21T04:12:24;48.80;;;21.67;;
47021;SDS011;32779;52.264;6.154;2023-11-21T04:14:50;52.42;;;21.65;;
47021;SDS011;32779;52.264;6.154;2023-11-21T04:17:19;42.65;;;20.60;;
47021;SDS011;32779;52.264;6.154;2023-11-21T04:19:45;48.45;;;20.90;;
47021;SDS011;32779;52.264;6.154;2023-11-21T04:22:11;45.17;;;20.33;;
47021;SDS011;32779;52.264;6.154;2023-11-21T04:24:37;50.00;;;23.13;;
47021;SDS011;32779;52.264;6.154;2023-11-21T04:27:02;50.15;;;21.55;;
47021;SDS011;32779;52.264;6.154;2023-11-21T04:29:29;48.55;;;20.75;;
47021;SDS011;32779;52.264;6.154;2023-11-21T04:34:20;43.92;;;19.30;;
47021;SDS011;32779;52.264;6.154;2023-11-21T04:36:46;54.60;;;21.60;;
47021;SDS011;32779;52.264;6.154;2023-11-21T04:39:12;43.42;;;20.02;;
47021;SDS011;32779;52.264;6.154;2023-11-21T04:41:38;43.58;;;19.05;;
47021;SDS011;32779;52.264;6.154;2023-11-21T04:44:07;50.88;;;21.30;;
47021;SDS011;32779;52.264;6.154;2023-11-21T04:46:33;55.25;;;21.80;;
47021;SDS011;32779;52.264;6.154;2023-11-21T04:48:59;49.22;;;21.85;;
47021;SDS011;32779;52.264;6.154;2023-11-21T04:51:25;40.05;;;19.02;;
47021;SDS011;32779;52.264;6.154;2023-11-21T04:53:53;43.28;;;18.83;;
47021;SDS011;32779;52.264;6.154;2023-11-21T04:56:18;46.00;;;19.33;;
47021;SDS011;32779;52.264;6.154;2023-11-21T04:58:45;46.10;;;21.38;;
47021;SDS011;32779;52.264;6.154;2023-11-21T05:01:11;41.75;;;19.42;;
47021;SDS011;32779;52.264;6.154;2023-11-21T05:03:37;52.75;;;20.45;;
47021;SDS011;32779;52.264;6.154;2023-11-21T05:06:06;53.33;;;20.63;;
47021;SDS011;32779;52.264;6.154;2023-11-21T05:08:34;48.17;;;20.90;;
47021;SDS011;32779;52.264;6.154;2023-11-21T05:11:02;57.25;;;21.42;;
47021;SDS011;32779;52.264;6.154;2023-11-21T05:13:27;46.88;;;20.65;;
47021;SDS011;32779;52.264;6.154;2023-11-21T05:15:56;54.42;;;20.42;;
47021;SDS011;32779;52.264;6.154;2023-11-21T05:18:29;54.70;;;21.90;;
47021;SDS011;32779;52.264;6.154;2023-11-21T05:20:55;45.53;;;21.05;;
47021;SDS011;32779;52.264;6.154;2023-11-21T05:23:21;59.80;;;21.60;;
47021;SDS011;32779;52.264;6.154;2023-11-21T05:25:47;49.17;;;21.55;;
47021;SDS011;32779;52.264;6.154;2023-11-21T05:28:13;43.58;;;20.48;;
47021;SDS011;32779;52.264;6.154;2023-11-21T05:33:04;57.78;;;21.05;;
47021;SDS011;32779;52.264;6.154;2023-11-21T05:37:56;50.45;;;21.15;;
47021;SDS011;32779;52.264;6.154;2023-11-21T05:40:22;47.53;;;21.50;;
47021;SDS011;32779;52.264;6.154;2023-11-21T05:42:48;59.38;;;23.35;;
47021;SDS011;32779;52.264;6.154;2023-11-21T05:45:14;65.70;;;23.70;;
47021;SDS011;32779;52.264;6.154;2023-11-21T05:47:44;56.42;;;23.38;;
47021;SDS011;32779;52.264;6.154;2023-11-21T05:50:14;60.38;;;24.05;;
47021;SDS011;32779;52.264;6.154;2023-11-21T05:52:41;49.78;;;22.13;;
47021;SDS011;32779;52.264;6.154;2023-11-21T05:55:11;57.50;;;24.23;;
47021;SDS011;32779;52.264;6.154;2023-11-21T05:57:38;53.83;;;23.17;;
47021;SDS011;32779;52.264;6.154;2023-11-21T06:00:05;51.65;;;23.30;;
47021;SDS011;32779;52.264;6.154;2023-11-21T06:02:49;50.85;;;22.70;;
47021;SDS011;32779;52.264;6.154;2023-11-21T06:05:23;43.15;;;21.73;;
47021;SDS011;32779;52.264;6.154;2023-11-21T06:07:51;46.90;;;21.85;;
47021;SDS011;32779;52.264;6.154;2023-11-21T06:10:19;49.50;;;21.83;;
47021;SDS011;32779;52.264;6.154;2023-11-21T06:12:46;45.97;;;20.60;;
47021;SDS011;32779;52.264;6.154;2023-11-21T06:15:12;51.67;;;22.38;;
47021;SDS011;32779;52.264;6.154;2023-11-21T06:17:38;54.47;;;22.90;;
47021;SDS011;32779;52.264;6.154;2023-11-21T06:20:06;54.83;;;23.67;;
47021;SDS011;32779;52.264;6.154;2023-11-21T06:22:39;45.47;;;22.85;;
47021;SDS011;32779;52.264;6.154;2023-11-21T06:25:06;52.45;;;23.20;;
47021;SDS011;32779;52.264;6.154;2023-11-21T06:27:34;52.00;;;23.83;;
47021;SDS011;32779;52.264;6.154;2023-11-21T06:30:02;55.10;;;23.45;;
47021;SDS011;32779;52.264;6.154;2023-11-21T06:32:28;56.95;;;23.85;;
47021;SDS011;32779;52.264;6.154;2023-11-21T06:34:55;51.80;;;23.08;;
47021;SDS011;32779;52.264;6.154;2023-11-21T06:37:21;52.15;;;22.08;;
47021;SDS011;32779;52.264;6.154;2023-11-21T06:39:48;48.47;;;22.00;;
47021;SDS011;32779;52.264;6.154;2023-11-21T06:42:17;49.92;;;22.52;;
47021;SDS011;32779;52.264;6.154;2023-11-21T06:44:44;58.80;;;23.63;;
47021;SDS011;32779;52.264;6.154;2023-11-21T06:49:36;65.32;;;25.05;;
47021;SDS011;32779;52.264;6.154;2023-11-21T06:52:04;62.83;;;25.10;;
47021;SDS011;32779;52.264;6.154;2023-11-21T06:56:59;56.38;;;23.30;;
47021;SDS011;32779;52.264;6.154;2023-11-21T06:59:24;54.90;;;23.55;;
47021;SDS011;32779;52.264;6.154;2023-11-21T07:01:50;60.72;;;25.42;;
47021;SDS011;32779;52.264;6.154;2023-11-21T07:04:16;54.60;;;24.02;;
47021;SDS011;32779;52.264;6.154;2023-11-21T07:06:43;56.20;;;23.08;;
47021;SDS011;32779;52.264;6.154;2023-11-21T07:09:09;58.20;;;22.55;;
47021;SDS011;32779;52.264;6.154;2023-11-21T07:11:36;56.60;;;23.45;;
47021;SDS011;32779;52.264;6.154;2023-11-21T07:14:03;55.42;;;23.42;;
47021;SDS011;32779;52.264;6.154;2023-11-21T07:16:33;56.40;;;23.38;;
47021;SDS011;32779;52.264;6.154;2023-11-21T07:19:02;54.63;;;23.60;;
47021;SDS011;32779;52.264;6.154;2023-11-21T07:21:32;56.13;;;22.85;;
47021;SDS011;32779;52.264;6.154;2023-11-21T07:23:58;49.25;;;21.83;;
47021;SDS011;32779;52.264;6.154;2023-11-21T07:26:28;53.30;;;22.80;;
47021;SDS011;32779;52.264;6.154;2023-11-21T07:28:55;54.13;;;22.58;;
47021;SDS011;32779;52.264;6.154;2023-11-21T07:31:21;56.80;;;23.23;;
47021;SDS011;32779;52.264;6.154;2023-11-21T07:33:47;52.60;;;23.08;;
47021;SDS011;32779;52.264;6.154;2023-11-21T07:36:13;61.67;;;23.08;;
47021;SDS011;32779;52.264;6.154;2023-11-21T07:38:40;48.10;;;21.88;;
47021;SDS011;32779;52.264;6.154;2023-11-21T07:43:33;55.33;;;22.67;;
47021;SDS011;32779;52.264;6.154;2023-11-21T07:46:03;53.85;;;22.95;;
47021;SDS011;32779;52.264;6.154;2023-11-21T07:48:33;57.42;;;24.30;;
47021;SDS011;32779;52.264;6.154;2023-11-21T07:50:59;46.65;;;22.33;;
47021;SDS011;32779;52.264;6.154;2023-11-21T07:53:30;57.55;;;23.40;;
47021;SDS011;32779;52.264;6.154;2023-11-21T07:56:03;53.97;;;22.40;;
47021;SDS011;32779;52.264;6.154;2023-11-21T07:58:33;59.05;;;23.02;;
47021;SDS011;32779;52.264;6.154;2023-11-21T08:00:59;77.47;;;27.23;;
47021;SDS011;32779;52.264;6.154;2023-11-21T08:03:25;71.07;;;25.85;;
47021;SDS011;32779;52.264;6.154;2023-11-21T08:05:55;64.75;;;24.75;;
47021;SDS011;32779;52.264;6.154;2023-11-21T08:08:24;62.97;;;24.65;;
47021;SDS011;32779;52.264;6.154;2023-11-21T08:10:51;68.82;;;26.55;;
47021;SDS011;32779;52.264;6.154;2023-11-21T08:13:23;59.25;;;24.60;;
47021;SDS011;32779;52.264;6.154;2023-11-21T08:15:56;59.72;;;25.73;;
47021;SDS011;32779;52.264;6.154;2023-11-21T08:18:27;64.68;;;26.83;;
47021;SDS011;32779;52.264;6.154;2023-11-21T08:20:54;69.75;;;26.27;;
47021;SDS011;32779;52.264;6.154;2023-11-21T08:23:20;63.00;;;25.42;;
47021;SDS011;32779;52.264;6.154;2023-11-21T08:25:46;63.55;;;24.65;;
47021;SDS011;32779;52.264;6.154;2023-11-21T08:28:12;72.68;;;27.75;;
47021;SDS011;32779;52.264;6.154;2023-11-21T08:30:39;58.78;;;25.42;;
47021;SDS011;32779;52.264;6.154;2023-11-21T08:33:06;59.03;;;23.67;;
47021;SDS011;32779;52.264;6.154;2023-11-21T08:35:33;63.20;;;25.48;;
47021;SDS011;32779;52.264;6.154;2023-11-21T08:37:59;81.35;;;28.23;;
47021;SDS011;32779;52.264;6.154;2023-11-21T08:40:25;71.00;;;26.65;;
47021;SDS011;32779;52.264;6.154;2023-11-21T08:42:51;73.07;;;27.45;;
47021;SDS011;32779;52.264;6.154;2023-11-21T08:45:20;82.10;;;30.60;;
47021;SDS011;32779;52.264;6.154;2023-11-21T08:47:47;72.43;;;28.13;;
47021;SDS011;32779;52.264;6.154;2023-11-21T08:50:13;80.80;;;29.50;;
47021;SDS011;32779;52.264;6.154;2023-11-21T08:52:39;74.82;;;29.08;;
47021;SDS011;32779;52.264;6.154;2023-11-21T08:55:05;61.35;;;26.95;;
47021;SDS011;32779;52.264;6.154;2023-11-21T08:57:37;51.50;;;25.13;;
47021;SDS011;32779;52.264;6.154;2023-11-21T09:00:04;62.42;;;24.38;;
47021;SDS011;32779;52.264;6.154;2023-11-21T09:02:37;51.97;;;23.38;;
47021;SDS011;32779;52.264;6.154;2023-11-21T09:05:06;52.85;;;21.85;;
47021;SDS011;32779;52.264;6.154;2023-11-21T09:07:34;47.15;;;22.05;;
47021;SDS011;32779;52.264;6.154;2023-11-21T09:10:00;48.17;;;21.88;;
47021;SDS011;32779;52.264;6.154;2023-11-21T09:12:28;46.58;;;22.05;;
47021;SDS011;32779;52.264;6.154;2023-11-21T09:14:53;50.10;;;22.25;;
47021;SDS011;32779;52.264;6.154;2023-11-21T09:17:19;50.22;;;20.65;;
47021;SDS011;32779;52.264;6.154;2023-11-21T09:19:45;45.00;;;22.20;;
47021;SDS011;32779;52.264;6.154;2023-11-21T09:22:16;53.88;;;21.63;;
47021;SDS011;32779;52.264;6.154;2023-11-21T09:24:42;52.70;;;22.23;;
47021;SDS011;32779;52.264;6.154;2023-11-21T09:27:08;47.03;;;21.20;;
47021;SDS011;32779;52.264;6.154;2023-11-21T09:29:35;43.80;;;21.08;;
47021;SDS011;32779;52.264;6.154;2023-11-21T09:32:03;38.60;;;20.95;;
47021;SDS011;32779;52.264;6.154;2023-11-21T09:34:31;37.40;;;19.90;;
47021;SDS011;32779;52.264;6.154;2023-11-21T09:36:58;39.20;;;19.63;;
47021;SDS011;32779;52.264;6.154;2023-11-21T09:39:24;42.92;;;21.20;;
47021;SDS011;32779;52.264;6.154;2023-11-21T09:41:50;41.97;;;21.50;;
47021;SDS011;32779;52.264;6.154;2023-11-21T09:44:55;37.00;;;20.45;;
47021;SDS011;32779;52.264;6.154;2023-11-21T09:47:24;35.67;;;19.48;;
47021;SDS011;32779;52.264;6.154;2023-11-21T09:49:50;33.63;;;18.80;;
47021;SDS011;32779;52.264;6.154;2023-11-21T09:52:22;32.72;;;17.42;;
47021;SDS011;32779;52.264;6.154;2023-11-21T09:54:50;30.30;;;17.05;;
47021;SDS011;32779;52.264;6.154;2023-11-21T09:57:25;29.80;;;16.95;;
47021;SDS011;32779;52.264;6.154;2023-11-21T09:59:52;29.35;;;16.02;;
47021;SDS011;32779;52.264;6.154;2023-11-21T10:02:27;29.75;;;16.80;;
47021;SDS011;32779;52.264;6.154;2023-11-21T10:04:55;29.45;;;15.60;;
47021;SDS011;32779;52.264;6.154;2023-11-21T10:09:47;30.30;;;16.15;;
47021;SDS011;32779;52.264;6.154;2023-11-21T10:12:14;28.15;;;15.73;;
47021;SDS011;32779;52.264;6.154;2023-11-21T10:14:41;27.35;;;16.05;;
47021;SDS011;32779;52.264;6.154;2023-11-21T10:17:10;29.40;;;16.63;;
47021;SDS011;32779;52.264;6.154;2023-11-21T10:19:38;29.80;;;15.93;;
47021;SDS011;32779;52.264;6.154;2023-11-21T10:22:04;31.08;;;16.10;;
47021;SDS011;32779;52.264;6.154;2023-11-21T10:24:32;29.55;;;15.07;;
47021;SDS011;32779;52.264;6.154;2023-11-21T10:26:58;29.48;;;15.98;;
47021;SDS011;32779;52.264;6.154;2023-11-21T10:29:25;29.35;;;16.38;;
47021;SDS011;32779;52.264;6.154;2023-11-21T10:31:54;32.15;;;15.95;;
47021;SDS011;32779;52.264;6.154;2023-11-21T10:34:22;37.28;;;17.88;;
47021;SDS011;32779;52.264;6.154;2023-11-21T10:36:48;34.30;;;18.23;;
47021;SDS011;32779;52.264;6.154;2023-11-21T10:39:17;34.85;;;17.88;;
47021;SDS011;32779;52.264;6.154;2023-11-21T10:41:47;41.17;;;18.92;;
47021;SDS011;32779;52.264;6.154;2023-11-21T10:44:14;37.55;;;18.92;;
47021;SDS011;32779;52.264;6.154;2023-11-21T10:46:49;35.85;;;18.02;;
47021;SDS011;32779;52.264;6.154;2023-11-21T10:49:16;35.15;;;17.55;;
47021;SDS011;32779;52.264;6.154;2023-11-21T10:51:43;36.90;;;18.20;;
47021;SDS011;32779;52.264;6.154;2023-11-21T10:54:09;36.78;;;17.85;;
47021;SDS011;32779;52.264;6.154;2023-11-21T10:56:35;38.78;;;19.15;;
47021;SDS011;32779;52.264;6.154;2023-11-21T10:59:05;34.60;;;18.15;;
47021;SDS011;32779;52.264;6.154;2023-11-21T11:01:35;36.45;;;18.27;;
47021;SDS011;32779;52.264;6.154;2023-11-21T11:06:39;29.58;;;16.02;;
47021;SDS011;32779;52.264;6.154;2023-11-21T11:09:07;32.65;;;16.77;;
47021;SDS011;32779;52.264;6.154;2023-11-21T11:11:33;32.17;;;17.20;;
47021;SDS011;32779;52.264;6.154;2023-11-21T11:14:01;31.10;;;16.30;;
47021;SDS011;32779;52.264;6.154;2023-11-21T11:16:28;32.95;;;16.58;;
47021;SDS011;32779;52.264;6.154;2023-11-21T11:18:54;33.15;;;17.02;;
47021;SDS011;32779;52.264;6.154;2023-11-21T11:27:35;28.10;;;14.98;;
47021;SDS011;32779;52.264;6.154;2023-11-21T11:32:57;30.23;;;17.27;;
47021;SDS011;32779;52.264;6.154;2023-11-21T11:38:46;30.58;;;17.48;;
47021;SDS011;32779;52.264;6.154;2023-11-21T11:41:15;31.75;;;17.50;;
47021;SDS011;32779;52.264;6.154;2023-11-21T11:43:50;33.00;;;18.17;;
47021;SDS011;32779;52.264;6.154;2023-11-21T11:46:16;30.98;;;16.48;;
47021;SDS011;32779;52.264;6.154;2023-11-21T11:48:42;28.23;;;16.58;;
47021;SDS011;32779;52.264;6.154;2023-11-21T11:53:40;30.70;;;16.73;;
47021;SDS011;32779;52.264;6.154;2023-11-21T11:58:50;31.00;;;16.85;;
47021;SDS011;32779;52.264;6.154;2023-11-21T12:01:19;25.00;;;15.70;;
47021;SDS011;32779;52.264;6.154;2023-11-21T12:06:39;30.85;;;16.48;;
47021;SDS011;32779;52.264;6.154;2023-11-21T12:09:07;30.90;;;16.77;;
47021;SDS011;32779;52.264;6.154;2023-11-21T12:11:51;25.10;;;15.30;;
47021;SDS011;32779;52.264;6.154;2023-11-21T12:14:17;27.23;;;16.25;;
47021;SDS011;32779;52.264;6.154;2023-11-21T12:16:43;27.60;;;16.00;;
47021;SDS011;32779;52.264;6.154;2023-11-21T12:19:11;28.83;;;16.17;;
47021;SDS011;32779;52.264;6.154;2023-11-21T12:21:37;24.95;;;15.88;;
47021;SDS011;32779;52.264;6.154;2023-11-21T12:24:06;24.60;;;14.35;;
47021;SDS011;32779;52.264;6.154;2023-11-21T12:26:34;24.60;;;13.52;;
47021;SDS011;32779;52.264;6.154;2023-11-21T12:29:01;28.38;;;13.80;;
47021;SDS011;32779;52.264;6.154;2023-11-21T12:31:29;24.48;;;12.52;;
47021;SDS011;32779;52.264;6.154;2023-11-21T12:33:59;30.40;;;13.48;;
47021;SDS011;32779;52.264;6.154;2023-11-21T12:36:25;29.17;;;14.57;;
47021;SDS011;32779;52.264;6.154;2023-11-21T12:41:17;29.75;;;15.43;;
47021;SDS011;32779;52.264;6.154;2023-11-21T12:43:43;29.42;;;15.20;;
47021;SDS011;32779;52.264;6.154;2023-11-21T12:46:09;32.40;;;16.23;;
47021;SDS011;32779;52.264;6.154;2023-11-21T12:48:37;36.88;;;16.98;;
47021;SDS011;32779;52.264;6.154;2023-11-21T12:51:04;36.90;;;17.80;;
47021;SDS011;32779;52.264;6.154;2023-11-21T12:53:31;35.63;;;17.92;;
47021;SDS011;32779;52.264;6.154;2023-11-21T12:56:02;36.65;;;18.17;;
47021;SDS011;32779;52.264;6.154;2023-11-21T12:58:31;38.85;;;18.98;;
47021;SDS011;32779;52.264;6.154;2023-11-21T13:00:58;39.75;;;19.45;;
47021;SDS011;32779;52.264;6.154;2023-11-21T13:03:24;40.15;;;19.58;;
47021;SDS011;32779;52.264;6.154;2023-11-21T13:05:51;36.15;;;19.27;;
47021;SDS011;32779;52.264;6.154;2023-11-21T13:08:20;34.53;;;19.45;;
47021;SDS011;32779;52.264;6.154;2023-11-21T13:10:50;33.00;;;18.85;;
47021;SDS011;32779;52.264;6.154;2023-11-21T13:13:20;38.80;;;19.77;;
47021;SDS011;32779;52.264;6.154;2023-11-21T13:15:49;31.95;;;18.20;;
47021;SDS011;32779;52.264;6.154;2023-11-21T13:18:21;31.95;;;17.92;;
47021;SDS011;32779;52.264;6.154;2023-11-21T13:20:48;33.70;;;18.80;;
47021;SDS011;32779;52.264;6.154;2023-11-21T13:23:15;35.55;;;17.90;;
47021;SDS011;32779;52.264;6.154;2023-11-21T13:25:43;30.02;;;18.20;;
47021;SDS011;32779;52.264;6.154;2023-11-21T13:28:10;30.40;;;16.48;;
47021;SDS011;32779;52.264;6.154;2023-11-21T13:33:02;29.65;;;16.30;;
47021;SDS011;32779;52.264;6.154;2023-11-21T13:35:33;25.65;;;15.02;;
47021;SDS011;32779;52.264;6.154;2023-11-21T13:38:13;25.95;;;14.65;;
47021;SDS011;32779;52.264;6.154;2023-11-21T13:40:42;25.88;;;14.82;;
47021;SDS011;32779;52.264;6.154;2023-11-21T13:43:15;26.92;;;15.95;;
47021;SDS011;32779;52.264;6.154;2023-11-21T13:45:43;28.00;;;15.63;;
47021;SDS011;32779;52.264;6.154;2023-11-21T13:48:11;26.40;;;16.30;;
47021;SDS011;32779;52.264;6.154;2023-11-21T13:50:42;29.90;;;18.05;;
47021;SDS011;32779;52.264;6.154;2023-11-21T13:53:26;23.95;;;16.85;;
47021;SDS011;32779;52.264;6.154;2023-11-21T13:55:53;26.90;;;16.65;;
47021;SDS011;32779;52.264;6.154;2023-11-21T13:58:19;23.80;;;16.38;;
47021;SDS011;32779;52.264;6.154;2023-11-21T14:01:04;22.20;;;14.90;;
47021;SDS011;32779;52.264;6.154;2023-11-21T14:03:38;23.58;;;16.05;;
47021;SDS011;32779;52.264;6.154;2023-11-21T14:06:15;22.77;;;14.32;;
47021;SDS011;32779;52.264;6.154;2023-11-21T14:08:46;21.13;;;15.00;;
47021;SDS011;32779;52.264;6.154;2023-11-21T14:11:12;20.88;;;13.82;;
47021;SDS011;32779;52.264;6.154;2023-11-21T14:13:42;18.75;;;13.75;;
47021;SDS011;32779;52.264;6.154;2023-11-21T14:16:11;18.98;;;14.20;;
47021;SDS011;32779;52.264;6.154;2023-11-21T14:18:39;18.10;;;13.57;;
47021;SDS011;32779;52.264;6.154;2023-11-21T14:21:17;18.35;;;13.30;;
47021;SDS011;32779;52.264;6.154;2023-11-21T14:23:43;16.40;;;12.27;;
47021;SDS011;32779;52.264;6.154;2023-11-21T14:26:10;19.58;;;11.90;;
47021;SDS011;32779;52.264;6.154;2023-11-21T14:28:40;16.33;;;12.00;;
47021;SDS011;32779;52.264;6.154;2023-11-21T14:31:06;17.35;;;12.05;;
47021;SDS011;32779;52.264;6.154;2023-11-21T14:35:58;14.57;;;11.20;;
47021;SDS011;32779;52.264;6.154;2023-11-21T14:38:24;14.48;;;9.75;;
47021;SDS011;32779;52.264;6.154;2023-11-21T14:40:49;15.10;;;11.07;;
47021;SDS011;32779;52.264;6.154;2023-11-21T14:43:15;13.52;;;9.85;;
47021;SDS011;32779;52.264;6.154;2023-11-21T14:45:42;13.15;;;8.88;;
47021;SDS011;32779;52.264;6.154;2023-11-21T14:48:07;15.32;;;10.18;;
47021;SDS011;32779;52.264;6.154;2023-11-21T14:50:41;12.48;;;9.20;;
47021;SDS011;32779;52.264;6.154;2023-11-21T14:53:08;12.40;;;9.63;;
47021;SDS011;32779;52.264;6.154;2023-11-21T14:55:34;10.90;;;8.30;;
47021;SDS011;32779;52.264;6.154;2023-11-21T14:58:21;13.45;;;9.13;;
47021;SDS011;32779;52.264;6.154;2023-11-21T15:00:56;12.15;;;8.73;;
47021;SDS011;32779;52.264;6.154;2023-11-21T15:03:26;11.88;;;8.40;;
47021;SDS011;32779;52.264;6.154;2023-11-21T15:05:55;14.80;;;9.27;;
47021;SDS011;32779;52.264;6.154;2023-11-21T15:08:43;12.15;;;8.98;;
47021;SDS011;32779;52.264;6.154;2023-11-21T15:11:09;15.27;;;8.85;;
47021;SDS011;32779;52.264;6.154;2023-11-21T15:13:39;11.63;;;9.05;;
47021;SDS011;32779;52.264;6.154;2023-11-21T15:16:07;13.07;;;8.88;;
47021;SDS011;32779;52.264;6.154;2023-11-21T15:18:37;13.45;;;9.43;;
47021;SDS011;32779;52.264;6.154;2023-11-21T15:21:03;15.50;;;9.68;;